Time;durP1;ratioP1;P1;durP2;ratioP2;P2;SDS_P1;SDS_P2;PMS_P1;PMS_P2;Temp;Humidity;BMP_temperature;BMP_pressure;BME280_temperature;BME280_humidity;BME280_pressure;Samples;Min_cycle;Max_cycle;Signal;HPM_P1;HPM_P2
2022/08/13 00:02:09;;;;;;;18.12;16.12;;;;;;;16.85;67.95;97302.33;1702592;84;25739;-77
2022/08/13 00:04:31;;;;;;;17.65;15.88;;;;;;;16.82;67.99;97301.46;1698955;84;25742;-77
2022/08/13 00:07:08;;;;;;;17.65;15.70;;;;;;;16.77;68.06;97289.97;1702517;84;25542;-76
2022/08/13 00:09:39;;;;;;;17.25;15.32;;;;;;;16.69;68.10;97296.38;1702630;84;27388;-77
2022/08/13 00:15:10;;;;;;;19.10;15.70;;;;;;;16.65;68.20;97285.19;1702141;84;25816;-76
2022/08/13 00:17:37;;;;;;;17.57;15.58;;;;;;;16.64;68.23;97279.45;1702481;84;25839;-77
2022/08/13 00:20:06;;;;;;;17.92;16.00;;;;;;;16.62;68.26;97284.32;1702221;84;26396;-77
2022/08/13 00:22:34;;;;;;;19.23;15.32;;;;;;;16.60;68.31;97290.52;1702577;84;28222;-77
2022/08/13 00:25:04;;;;;;;19.30;16.80;;;;;;;16.58;68.34;97291.31;1702405;84;25817;-77
2022/08/13 00:27:31;;;;;;;20.43;16.55;;;;;;;16.50;68.42;97291.75;1698950;84;25854;-77
2022/08/13 00:29:58;;;;;;;18.00;16.05;;;;;;;16.46;68.57;97286.52;1694474;84;25478;-77
2022/08/13 00:32:29;;;;;;;20.55;16.90;;;;;;;16.45;68.60;97283.50;1694862;84;26101;-77
2022/08/13 00:34:55;;;;;;;17.95;16.05;;;;;;;16.45;68.72;97283.50;1694458;84;27405;-77
2022/08/13 00:37:22;;;;;;;18.92;16.75;;;;;;;16.45;68.87;97282.13;1694632;84;25681;-78
2022/08/13 00:39:49;;;;;;;19.30;17.23;;;;;;;16.44;68.93;97277.77;1694812;84;25402;-77
2022/08/13 00:42:22;;;;;;;19.52;17.42;;;;;;;16.43;69.01;97272.84;1694769;84;26342;-78
2022/08/13 00:44:51;;;;;;;20.32;16.75;;;;;;;16.41;69.19;97272.84;1694707;83;25523;-77
2022/08/13 00:50:06;;;;;;;19.82;17.02;;;;;;;16.35;69.42;97266.48;1694475;84;25759;-78
2022/08/13 00:52:38;;;;;;;20.82;17.60;;;;;;;16.36;69.43;97261.86;1694758;83;25385;-77
2022/08/13 00:55:10;;;;;;;20.90;17.27;;;;;;;16.38;69.50;97270.61;1781858;80;25760;-77
2022/08/13 00:57:36;;;;;;;20.02;17.07;;;;;;;16.38;69.59;97265.98;1749172;82;25764;-77
2022/08/13 01:00:11;;;;;;;19.90;17.80;;;;;;;16.38;69.65;97257.81;1675380;84;28160;-77
2022/08/13 01:02:38;;;;;;;18.90;16.90;;;;;;;16.34;69.76;97251.75;1671228;85;25755;-77
2022/08/13 01:05:05;;;;;;;18.50;16.60;;;;;;;16.30;69.84;97249.27;1675345;84;25704;-77
2022/08/13 01:07:32;;;;;;;19.67;17.57;;;;;;;16.30;69.87;97252.78;1674877;84;25798;-77
2022/08/13 01:09:59;;;;;;;19.27;17.05;;;;;;;16.30;69.92;97247.90;1675258;85;25590;-77
2022/08/13 01:12:27;;;;;;;20.82;16.80;;;;;;;16.29;70.07;97246.25;1674946;85;27350;-77
2022/08/13 01:15:02;;;;;;;21.00;17.73;;;;;;;16.29;70.13;97244.89;1675171;85;25777;-77
2022/08/13 01:17:27;;;;;;;19.82;17.57;;;;;;;16.30;70.15;97242.45;1674586;85;25882;-77
2022/08/13 01:19:55;;;;;;;19.57;17.35;;;;;;;16.30;70.25;97238.37;1675201;85;25827;-77
2022/08/13 01:22:22;;;;;;;20.70;16.67;;;;;;;16.31;70.28;97234.54;1674856;85;25809;-77
2022/08/13 01:24:50;;;;;;;20.00;17.12;;;;;;;16.30;70.40;97235.08;1652560;85;27454;-77
2022/08/13 01:27:21;;;;;;;19.75;17.57;;;;;;;16.31;70.44;97237.27;1674719;85;25830;-77
2022/08/13 01:29:50;;;;;;;20.85;17.55;;;;;;;16.31;70.50;97226.36;1674934;85;26490;-77
2022/08/13 01:32:19;;;;;;;20.32;17.42;;;;;;;16.31;70.61;97225.01;1674846;85;25809;-77
2022/08/13 01:34:48;;;;;;;18.10;16.10;;;;;;;16.30;70.65;97225.55;1675356;85;25820;-77
2022/08/13 01:37:16;;;;;;;19.67;17.57;;;;;;;16.31;70.71;97223.64;1674858;85;28096;-77
2022/08/13 01:39:42;;;;;;;17.98;16.07;;;;;;;16.30;70.81;97222.02;1675077;85;25768;-77
2022/08/13 01:42:20;;;;;;;18.90;16.00;;;;;;;16.29;70.84;97218.48;1674969;85;25807;-77
2022/08/13 01:44:49;;;;;;;17.87;16.02;;;;;;;16.29;70.85;97219.84;1675205;84;25818;-77
2022/08/13 01:52:50;;;;;;;19.25;17.35;;;;;;;16.26;70.96;97208.08;1674746;85;25775;-77
2022/08/13 01:55:19;;;;;;;18.10;16.05;;;;;;;16.25;71.03;97208.33;1675256;85;25743;-78
2022/08/13 01:57:45;;;;;;;22.73;16.73;;;;;;;16.23;71.03;97204.48;1674986;85;28139;-78
2022/08/13 02:00:18;;;;;;;17.05;15.35;;;;;;;16.19;71.06;97205.52;1707013;82;25759;-77
2022/08/13 02:02:44;;;;;;;20.88;16.42;;;;;;;16.18;71.04;97202.51;1750636;81;27410;-78
2022/08/13 02:05:12;;;;;;;19.48;16.48;;;;;;;16.17;71.05;97203.61;1731550;81;25470;-77
2022/08/13 02:07:39;;;;;;;19.10;15.78;;;;;;;16.17;71.06;97209.59;1731638;82;25738;-77
2022/08/13 02:10:06;;;;;;;17.90;16.07;;;;;;;16.15;71.16;97207.12;1731528;82;26458;-78
2022/08/13 02:12:36;;;;;;;18.30;15.40;;;;;;;16.14;71.23;97213.64;1731642;82;25750;-77
2022/08/13 02:15:05;;;;;;;19.75;16.55;;;;;;;16.12;71.33;97212.23;1731704;82;28299;-77
2022/08/13 02:17:40;;;;;;;19.92;16.60;;;;;;;16.10;71.42;97216.56;1684700;85;25762;-77
2022/08/13 02:20:07;;;;;;;18.48;16.57;;;;;;;16.11;71.54;97214.67;1684741;85;25786;-77
2022/08/13 02:22:34;;;;;;;17.92;16.10;;;;;;;16.09;71.72;97216.81;1684866;85;25766;-77
2022/08/13 02:25:01;;;;;;;18.23;15.85;;;;;;;16.09;71.78;97213.55;1684755;85;25787;-77
2022/08/13 02:27:28;;;;;;;21.37;15.90;;;;;;;16.11;71.91;97210.59;1684326;84;27389;-78
2022/08/13 02:29:57;;;;;;;19.75;17.17;;;;;;;16.11;71.92;97210.59;1682043;85;25751;-78
2022/08/13 02:32:23;;;;;;;20.17;16.55;;;;;;;16.12;72.03;97209.52;1682376;85;25968;-77
2022/08/13 02:34:50;;;;;;;17.92;15.38;;;;;;;16.11;72.05;97208.69;1682153;85;25832;-78
2022/08/13 02:37:21;;;;;;;20.23;17.25;;;;;;;16.11;72.13;97215.50;1682358;85;25698;-78
2022/08/13 02:39:50;;;;;;;19.02;17.02;;;;;;;16.13;72.20;97203.82;1682248;85;28181;-77
2022/08/13 02:42:18;;;;;;;18.17;15.95;;;;;;;16.12;72.35;97210.34;1606596;89;26910;-77
2022/08/13 02:44:47;;;;;;;23.75;16.17;;;;;;;16.13;72.34;97207.08;1606790;89;25769;-77
2022/08/13 02:47:19;;;;;;;18.02;16.12;;;;;;;16.13;72.42;97203.82;1606783;89;26493;-77
2022/08/13 02:49:50;;;;;;;18.45;16.30;;;;;;;16.15;72.39;97212.56;1606839;89;25589;-78
2022/08/13 02:52:15;;;;;;;19.32;16.55;;;;;;;16.15;72.41;97215.29;1603686;89;27414;-77
2022/08/13 02:54:45;;;;;;;19.40;16.45;;;;;;;16.16;72.55;97212.03;1606616;89;25567;-77
2022/08/13 02:57:13;;;;;;;21.85;16.67;;;;;;;16.17;72.55;97204.97;1606671;89;25865;-77
2022/08/13 02:59:41;;;;;;;20.43;17.12;;;;;;;16.17;72.56;97210.42;1606854;89;25751;-78
2022/08/13 03:02:11;;;;;;;19.55;16.62;;;;;;;16.19;72.65;97210.97;1606852;89;25848;-77
2022/08/13 03:04:41;;;;;;;17.98;16.07;;;;;;;16.19;72.65;97203.33;1606811;89;28070;-78
2022/08/13 03:07:07;;;;;;;21.05;17.57;;;;;;;16.23;72.77;97205.03;1600876;89;25718;-78
2022/08/13 03:09:34;;;;;;;19.25;17.15;;;;;;;16.24;72.82;97204.78;1606785;89;25375;-78
2022/08/13 03:12:04;;;;;;;19.62;17.45;;;;;;;16.25;72.87;97194.70;1606797;89;25747;-78
2022/08/13 03:14:33;;;;;;;20.05;16.20;;;;;;;16.21;73.02;97195.74;1624456;87;25700;-78
2022/08/13 03:17:00;;;;;;;18.82;16.82;;;;;;;16.19;73.17;97200.08;1637894;87;27451;-77
2022/08/13 03:19:27;;;;;;;18.95;16.27;;;;;;;16.19;73.20;97197.34;1637930;87;25820;-78
2022/08/13 03:21:54;;;;;;;19.70;17.60;;;;;;;16.23;73.26;97199.58;1637828;87;25855;-78
2022/08/13 03:24:21;;;;;;;18.45;16.55;;;;;;;16.23;73.36;97196.85;1637701;87;25879;-77
2022/08/13 03:26:48;;;;;;;21.65;17.37;;;;;;;16.24;73.42;97195.78;1637845;87;25806;-77
2022/08/13 03:29:17;;;;;;;19.37;17.27;;;;;;;16.25;73.37;97200.16;1637554;87;27392;-78
2022/08/13 03:31:43;;;;;;;19.02;16.97;;;;;;;16.27;73.46;97194.75;1637590;87;26124;-78
2022/08/13 03:34:10;;;;;;;17.57;15.60;;;;;;;16.29;73.47;97191.78;1637976;87;25898;-78
2022/08/13 03:36:38;;;;;;;19.42;17.40;;;;;;;16.30;73.50;97193.42;1637778;87;43784;-77
2022/08/13 03:39:05;;;;;;;18.77;16.55;;;;;;;16.31;73.64;97195.05;1682514;82;25879;-77
2022/08/13 03:41:32;;;;;;;19.77;16.62;;;;;;;16.29;73.69;97190.41;1731641;82;27448;-77
2022/08/13 03:43:59;;;;;;;19.67;17.57;;;;;;;16.30;73.70;97188.77;1731549;82;25663;-76
2022/08/13 03:46:27;;;;;;;20.70;18.17;;;;;;;16.31;73.78;97190.42;1731748;82;25806;-76
2022/08/13 03:48:54;;;;;;;20.65;18.02;;;;;;;16.32;73.89;97181.72;1731717;82;25728;-78
2022/08/13 03:51:23;;;;;;;19.02;17.02;;;;;;;16.34;73.87;97187.73;1731445;82;25678;-77
2022/08/13 03:53:53;;;;;;;19.23;16.55;;;;;;;16.36;73.89;97189.67;1731673;82;27398;-76
2022/08/13 03:56:22;;;;;;;18.62;16.75;;;;;;;16.38;73.87;97192.98;1731517;82;25762;-75
2022/08/13 03:58:50;;;;;;;20.85;18.62;;;;;;;16.39;73.84;97194.09;1731691;82;25724;-75
2022/08/13 04:01:17;;;;;;;19.62;17.02;;;;;;;16.41;73.87;97196.56;1731609;82;25729;-75
2022/08/13 04:03:45;;;;;;;22.00;18.67;;;;;;;16.42;73.80;97190.83;1731653;82;26105;-76
2022/08/13 04:06:19;;;;;;;26.40;20.77;;;;;;;16.45;73.83;97199.87;1731606;82;27483;-76
2022/08/13 04:08:48;;;;;;;24.65;20.75;;;;;;;16.46;73.83;97197.43;1731468;82;25766;-75
2022/08/13 04:11:19;;;;;;;23.32;19.52;;;;;;;16.47;73.85;97201.80;1731737;82;25727;-75
2022/08/13 04:13:46;;;;;;;23.92;19.60;;;;;;;16.48;73.85;97199.91;1682311;85;25748;-75
2022/08/13 04:16:18;;;;;;;25.57;19.45;;;;;;;16.51;73.95;97206.22;1682456;85;25788;-75
2022/08/13 04:18:46;;;;;;;22.25;18.95;;;;;;;16.51;73.95;97196.69;1682540;85;27602;-75
2022/08/13 04:21:16;;;;;;;26.02;20.43;;;;;;;16.53;73.97;97194.53;1682311;85;25844;-75
2022/08/13 04:23:44;;;;;;;26.40;22.02;;;;;;;16.56;73.97;97189.91;1682372;85;25823;-75
2022/08/13 04:26:14;;;;;;;22.13;19.73;;;;;;;16.59;74.07;97188.05;1682328;85;25706;-75
2022/08/13 04:28:41;;;;;;;27.60;20.65;;;;;;;16.58;74.17;97185.03;1673235;84;25913;-76
2022/08/13 04:31:10;;;;;;;38.05;24.23;;;;;;;16.58;74.15;97180.41;1664043;86;27475;-76
2022/08/13 04:33:38;;;;;;;33.45;24.92;;;;;;;16.61;74.22;97176.36;1677062;85;25777;-75
2022/08/13 04:36:07;;;;;;;37.75;25.27;;;;;;;16.63;74.19;97168.80;1658987;86;25729;-75
2022/08/13 04:38:34;;;;;;;34.03;25.02;;;;;;;16.65;74.24;97165.81;1658850;86;25732;-76
2022/08/13 04:41:01;;;;;;;39.75;25.52;;;;;;;16.65;74.27;97162.55;1658947;86;25776;-76
2022/08/13 04:43:29;;;;;;;40.03;26.70;;;;;;;16.64;74.50;97169.08;1658872;86;27456;-76
2022/08/13 04:45:59;;;;;;;38.25;27.20;;;;;;;16.63;74.62;97172.05;1658788;86;25743;-76
2022/08/13 04:48:28;;;;;;;39.67;26.60;;;;;;;16.65;74.65;97173.98;1658847;86;25875;-75
2022/08/13 04:50:55;;;;;;;39.13;26.25;;;;;;;16.67;74.60;97176.72;1658927;86;26548;-75
2022/08/13 04:53:35;;;;;;;40.40;25.68;;;;;;;16.69;74.58;97171.02;1658953;86;25728;-76
2022/08/13 04:56:03;;;;;;;38.80;26.87;;;;;;;16.71;74.56;97171.05;1658925;86;27446;-76
2022/08/13 04:58:35;;;;;;;36.03;25.92;;;;;;;16.72;74.68;97169.97;1659033;86;25811;-75
2022/08/13 05:01:06;;;;;;;39.40;25.90;;;;;;;16.74;74.73;97166.45;1658949;86;32482;-76
2022/08/13 05:03:33;;;;;;;37.50;25.77;;;;;;;16.78;74.83;97174.42;1670469;85;25799;-74
2022/08/13 05:06:00;;;;;;;41.58;26.15;;;;;;;16.82;74.82;97174.70;1670616;85;26059;-76
2022/08/13 05:08:26;;;;;;;39.38;26.95;;;;;;;16.84;74.73;97173.91;1670453;85;27430;-76
2022/08/13 05:10:53;;;;;;;40.05;27.42;;;;;;;16.87;74.74;97175.59;1674881;85;25919;-76
2022/08/13 05:13:32;;;;;;;37.30;25.88;;;;;;;16.88;74.75;97173.70;1678179;85;25814;-75
2022/08/13 05:16:03;;;;;;;41.37;26.75;;;;;;;16.91;74.72;97173.16;1678183;85;25799;-76
2022/08/13 05:18:32;;;;;;;42.20;26.33;;;;;;;16.95;74.74;97168.02;1678280;85;25810;-76
2022/08/13 05:21:03;;;;;;;41.00;26.48;;;;;;;16.97;74.81;97161.78;1678165;85;28153;-76
2022/08/13 05:23:34;;;;;;;40.78;26.27;;;;;;;16.97;74.79;97153.59;1653256;86;25957;-76
2022/08/13 05:26:01;;;;;;;38.08;26.82;;;;;;;17.01;74.80;97159.66;1592452;89;26962;-75
2022/08/13 05:28:28;;;;;;;40.83;27.30;;;;;;;17.02;74.87;97161.84;1597129;89;25834;-76
2022/08/13 05:30:54;;;;;;;40.15;26.75;;;;;;;17.00;74.92;97168.91;1608299;89;25836;-76
2022/08/13 05:33:24;;;;;;;38.95;26.73;;;;;;;17.01;74.92;97161.55;1608488;89;27458;-75
2022/08/13 05:35:55;;;;;;;42.13;27.13;;;;;;;17.03;74.97;97166.19;1608493;89;25826;-75
2022/08/13 05:38:24;;;;;;;37.13;26.27;;;;;;;17.05;74.99;97164.03;1608362;89;25888;-76
2022/08/13 05:40:57;;;;;;;39.55;27.05;;;;;;;17.07;74.97;97168.15;1608594;89;25801;-74
2022/08/13 05:43:27;;;;;;;41.65;27.60;;;;;;;17.09;74.90;97167.89;1608512;89;25513;-75
2022/08/13 05:45:59;;;;;;;40.08;27.73;;;;;;;17.10;74.91;97174.45;1608579;89;27550;-76
2022/08/13 05:48:30;;;;;;;42.80;28.47;;;;;;;17.13;74.93;97173.13;1608730;89;25726;-76
2022/08/13 05:51:00;;;;;;;40.75;28.17;;;;;;;17.14;75.00;97176.14;1608562;89;25764;-75
2022/08/13 05:53:28;;;;;;;44.20;29.90;;;;;;;17.15;74.96;97178.58;1608496;89;25790;-75
2022/08/13 05:55:55;;;;;;;50.50;30.17;;;;;;;17.18;74.96;97177.24;1608639;89;25851;-74
2022/08/13 05:58:23;;;;;;;45.92;30.72;;;;;;;17.20;74.93;97175.91;1608512;89;27411;-75
2022/08/13 06:03:37;;;;;;;51.98;31.73;;;;;;;17.20;74.97;97182.73;1630709;87;25892;-74
2022/08/13 06:06:10;;;;;;;50.25;31.35;;;;;;;17.20;75.01;97177.81;1631066;87;26479;-75
2022/08/13 06:08:41;;;;;;;51.20;31.48;;;;;;;17.21;75.16;97180.83;1631053;87;25302;-74
2022/08/13 06:11:14;;;;;;;49.38;31.70;;;;;;;17.18;75.20;97173.98;1630743;87;26842;-75
2022/08/13 06:13:41;;;;;;;53.23;32.15;;;;;;;17.23;75.20;97175.94;1604747;89;26118;-76
2022/08/13 06:16:11;;;;;;;50.85;32.33;;;;;;;17.25;75.18;97173.78;1604993;89;25892;-76
2022/08/13 06:18:44;;;;;;;54.93;32.15;;;;;;;17.27;75.19;97171.59;1561948;91;25779;-76
2022/08/13 06:21:15;;;;;;;54.05;32.00;;;;;;;17.29;75.18;97166.70;1551983;92;25666;-75
2022/08/13 06:23:45;;;;;;;53.83;32.63;;;;;;;17.31;75.29;97167.27;1585429;90;27472;-76
2022/08/13 06:26:15;;;;;;;55.28;33.83;;;;;;;17.31;75.21;97176.82;1542997;92;25627;-76
2022/08/13 06:28:44;;;;;;;51.33;32.33;;;;;;;17.33;75.23;97174.66;1564168;91;25986;-76
2022/08/13 06:31:14;;;;;;;50.70;32.73;;;;;;;17.33;75.37;97170.56;1581151;90;25866;-76
2022/08/13 06:33:41;;;;;;;52.50;31.75;;;;;;;17.35;75.39;97162.95;1581187;90;25858;-76
2022/08/13 06:36:14;;;;;;;48.33;32.45;;;;;;;17.36;75.37;97162.41;1581172;90;27467;-78
2022/08/13 06:38:48;;;;;;;55.35;31.52;;;;;;;17.39;75.33;97159.96;1581115;90;25397;-78
2022/08/13 06:41:18;;;;;;;51.55;33.08;;;;;;;17.41;75.30;97158.34;1581349;90;25793;-77
2022/08/13 06:43:47;;;;;;;55.75;33.10;;;;;;;17.42;75.45;97162.17;1581231;90;26572;-77
2022/08/13 06:46:17;;;;;;;49.50;31.05;;;;;;;17.42;75.60;97158.63;1580999;90;25793;-78
2022/08/13 06:48:44;;;;;;;54.15;33.02;;;;;;;17.42;75.62;97155.89;1581058;90;27500;-77
2022/08/13 06:51:12;;;;;;;49.58;32.65;;;;;;;17.44;75.70;97150.47;1581167;90;25588;-78
2022/08/13 06:53:45;;;;;;;50.05;32.17;;;;;;;17.46;75.67;97152.39;1581129;90;25751;-78
2022/08/13 06:56:22;;;;;;;48.15;33.40;;;;;;;17.47;75.64;97147.22;1581289;90;25689;-78
2022/08/13 06:58:51;;;;;;;47.67;31.87;;;;;;;17.49;75.62;97151.88;1581384;90;26951;-77
2022/08/13 07:01:23;;;;;;;43.63;31.20;;;;;;;17.52;75.74;97160.89;1581259;90;27407;-78
2022/08/13 07:03:53;;;;;;;46.60;32.15;;;;;;;17.54;75.83;97154.62;1536309;92;25579;-78
2022/08/13 07:06:26;;;;;;;43.28;31.55;;;;;;;17.57;75.83;97155.48;1533561;93;25397;-77
2022/08/13 07:08:58;;;;;;;48.50;32.75;;;;;;;17.58;75.94;97152.21;1533821;93;25694;-77
2022/08/13 07:11:28;;;;;;;45.90;31.77;;;;;;;17.59;76.08;97146.49;1533770;93;25916;-78
2022/08/13 07:13:57;;;;;;;47.88;32.30;;;;;;;17.61;76.24;97151.70;1533628;93;27425;-79
2022/08/13 07:16:30;;;;;;;50.67;32.95;;;;;;;17.63;76.30;97148.16;1573022;90;25792;-78
2022/08/13 07:18:59;;;;;;;50.70;31.45;;;;;;;17.64;76.48;97147.91;1651345;86;25856;-79
2022/08/13 07:21:28;;;;;;;45.80;31.97;;;;;;;17.68;76.59;97150.94;1662706;86;25843;-78
2022/08/13 07:23:56;;;;;;;42.65;30.75;;;;;;;17.73;76.63;97148.80;1662851;86;25804;-79
2022/08/13 07:26:28;;;;;;;41.92;31.02;;;;;;;17.75;76.56;97151.52;1662909;86;27347;-78
2022/08/13 07:28:54;;;;;;;45.35;32.48;;;;;;;17.76;76.68;97144.16;1658274;85;25736;-78
2022/08/13 07:31:34;;;;;;;48.08;34.27;;;;;;;17.77;76.80;97147.99;1653055;86;25806;-77
2022/08/13 07:34:04;;;;;;;46.50;34.20;;;;;;;17.81;76.82;97151.03;1668428;85;25878;-77
2022/08/13 07:36:36;;;;;;;47.25;33.38;;;;;;;17.81;77.09;97148.30;1649646;85;25931;-77
2022/08/13 07:39:09;;;;;;;47.10;34.13;;;;;;;17.82;77.17;97154.05;1680931;85;27453;-77
2022/08/13 07:41:46;;;;;;;44.55;33.48;;;;;;;17.84;77.23;97154.61;1581184;90;25801;-77
2022/08/13 07:44:21;;;;;;;43.48;31.82;;;;;;;17.85;77.28;97155.71;1583392;90;26000;-77
2022/08/13 07:46:51;;;;;;;40.90;30.37;;;;;;;17.87;77.32;97155.45;1583027;89;25781;-77
2022/08/13 07:49:20;;;;;;;44.38;30.72;;;;;;;17.91;77.26;97162.01;1583167;90;26625;-78
2022/08/13 07:51:48;;;;;;;40.52;29.82;;;;;;;17.92;77.34;97156.83;1583315;90;28306;-77
2022/08/13 07:54:15;;;;;;;42.43;29.48;;;;;;;17.95;77.31;97154.94;1583196;90;25777;-77
2022/08/13 07:56:47;;;;;;;36.20;27.85;;;;;;;17.98;77.46;97147.59;1583457;90;25367;-78
2022/08/13 07:59:15;;;;;;;39.38;27.73;;;;;;;18.01;77.53;97149.77;1583427;90;25768;-77
2022/08/13 08:01:52;;;;;;;35.58;27.58;;;;;;;17.98;77.53;97148.42;1583441;90;25873;-77
2022/08/13 08:04:24;;;;;;;34.20;25.37;;;;;;;18.03;77.57;97154.44;1558716;92;27495;-77
2022/08/13 08:06:51;;;;;;;37.28;26.40;;;;;;;18.06;77.64;97149.81;1567652;90;25831;-77
2022/08/13 08:09:21;;;;;;;32.90;24.43;;;;;;;18.11;77.64;97144.39;1583084;90;25840;-77
2022/08/13 08:14:36;;;;;;;26.73;20.57;;;;;;;18.19;77.75;97141.69;1524582;94;25761;-77
2022/08/13 08:17:05;;;;;;;26.05;20.77;;;;;;;18.20;77.80;97144.16;1521949;93;27446;-77
2022/08/13 08:19:32;;;;;;;25.52;20.25;;;;;;;18.21;77.72;97140.34;1521942;94;26080;-77
2022/08/13 08:21:59;;;;;;;24.60;20.40;;;;;;;18.24;77.79;97141.14;1524711;94;25839;-77
2022/08/13 08:24:32;;;;;;;25.50;20.43;;;;;;;18.28;77.77;97135.98;1524516;94;26550;-77
2022/08/13 08:26:58;;;;;;;23.77;18.62;;;;;;;18.27;77.72;97132.42;1521710;94;25920;-76
2022/08/13 08:29:25;;;;;;;22.52;18.75;;;;;;;18.27;77.69;97136.52;1520311;93;27553;-78
2022/08/13 08:31:52;;;;;;;27.52;20.27;;;;;;;18.17;77.54;97131.02;1513606;94;26820;-76
2022/08/13 08:34:19;;;;;;;23.67;18.73;;;;;;;18.15;77.71;97126.36;1513486;94;25760;-77
2022/08/13 08:36:45;;;;;;;26.73;20.12;;;;;;;18.16;77.88;97125.81;1513680;94;25822;-77
2022/08/13 08:44:43;;;;;;;21.42;16.97;;;;;;;18.22;78.04;97128.33;1537278;91;25932;-78
2022/08/13 08:47:10;;;;;;;24.75;16.15;;;;;;;18.23;78.15;97124.47;1513132;94;25975;-77
2022/08/13 08:49:39;;;;;;;19.30;15.20;;;;;;;18.23;78.26;97127.78;1537406;91;25812;-77
2022/08/13 08:52:08;;;;;;;20.43;14.58;;;;;;;18.26;78.28;97126.68;1513149;94;25784;-76
2022/08/13 08:54:36;;;;;;;17.57;14.55;;;;;;;18.30;78.35;97127.80;1537316;92;27437;-76
2022/08/13 08:57:04;;;;;;;17.05;12.98;;;;;;;18.32;78.44;97122.89;1512893;94;25393;-76
2022/08/13 08:59:35;;;;;;;16.15;12.95;;;;;;;18.32;78.40;97114.70;1537325;92;25862;-76
2022/08/13 09:02:18;;;;;;;17.17;13.38;;;;;;;18.34;78.34;97117.99;1505038;94;25785;-76
2022/08/13 09:07:16;;;;;;;15.53;11.73;;;;;;;18.30;78.36;97122.88;1473381;97;27437;-76
2022/08/13 09:09:44;;;;;;;16.07;12.75;;;;;;;18.26;78.56;97115.75;1489504;96;25897;-76
2022/08/13 09:12:12;;;;;;;15.03;12.63;;;;;;;18.18;78.54;97113.55;1529630;93;25859;-76
2022/08/13 09:14:39;;;;;;;15.70;12.15;;;;;;;18.18;78.76;97109.98;1513739;94;25815;-76
2022/08/13 09:17:07;;;;;;;17.20;12.82;;;;;;;18.18;78.86;97110.81;1529602;93;25938;-76
2022/08/13 09:19:34;;;;;;;17.23;12.60;;;;;;;18.20;78.92;97108.64;1514217;92;28128;-76
2022/08/13 09:22:00;;;;;;;16.87;12.47;;;;;;;18.22;78.96;97109.74;1542313;93;25923;-76
2022/08/13 09:24:28;;;;;;;13.95;12.03;;;;;;;18.24;78.97;97109.73;1542364;93;25436;-76
2022/08/13 09:26:55;;;;;;;14.90;12.07;;;;;;;18.26;79.04;97113.02;1542633;93;25884;-76
2022/08/13 09:29:23;;;;;;;13.22;10.78;;;;;;;18.29;79.04;97115.23;1548064;91;25825;-76
2022/08/13 09:31:58;;;;;;;14.73;11.05;;;;;;;18.26;78.98;97120.39;1567665;91;27329;-76
2022/08/13 09:34:19;;;;;;;14.83;11.30;;;;;;;18.26;79.06;97113.02;1564690;91;25822;-76
2022/08/13 09:36:46;;;;;;;13.62;10.55;;;;;;;18.30;79.09;97111.41;1567909;91;25779;-76
2022/08/13 09:39:50;;;;;;;14.85;10.38;;;;;;;18.33;79.14;97106.78;1567615;91;25845;-76
2022/08/13 09:42:27;;;;;;;12.33;9.85;;;;;;;18.32;79.15;97103.77;1565667;91;25821;-76
2022/08/13 09:44:59;;;;;;;14.18;10.32;;;;;;;18.36;79.27;97104.86;1565425;91;28228;-76
2022/08/13 09:47:26;;;;;;;15.83;10.72;;;;;;;18.42;79.33;97104.88;1567945;91;26063;-75
2022/08/13 09:49:53;;;;;;;13.48;11.75;;;;;;;18.46;79.38;97097.80;1567804;91;25841;-76
2022/08/13 09:52:20;;;;;;;17.42;12.15;;;;;;;18.44;79.31;97103.53;1567760;91;26579;-76
2022/08/13 09:54:49;;;;;;;15.48;12.75;;;;;;;18.46;79.32;97103.27;1567738;91;25845;-76
2022/08/13 09:57:20;;;;;;;16.05;12.90;;;;;;;18.48;79.38;97103.25;1567852;91;27419;-76
2022/08/13 09:59:44;;;;;;;16.82;13.30;;;;;;;18.51;79.47;97099.98;1564731;91;25802;-76
2022/08/13 10:02:12;;;;;;;16.48;12.07;;;;;;;18.54;79.41;97101.37;1567874;91;25754;-76
2022/08/13 10:04:41;;;;;;;13.22;11.68;;;;;;;18.56;79.35;97103.30;1660986;84;25707;-76
2022/08/13 10:07:09;;;;;;;14.90;10.95;;;;;;;18.59;79.37;97102.80;1702312;83;26032;-76
2022/08/13 10:09:36;;;;;;;16.00;12.15;;;;;;;18.62;79.29;97099.50;1702419;84;27457;-76
2022/08/13 10:12:06;;;;;;;15.18;13.13;;;;;;;18.65;79.29;97098.97;1702291;84;25734;-76
2022/08/13 10:14:34;;;;;;;15.30;13.10;;;;;;;18.66;79.27;97097.87;1702341;83;25768;-77
2022/08/13 10:17:01;;;;;;;14.28;12.58;;;;;;;18.69;79.41;97091.33;1702361;84;26431;-76
2022/08/13 10:19:28;;;;;;;15.58;12.90;;;;;;;18.72;79.40;97089.94;1702019;83;25706;-76
2022/08/13 10:21:55;;;;;;;14.20;11.60;;;;;;;18.75;79.45;97083.12;1702252;83;27461;-77
2022/08/13 10:24:22;;;;;;;12.65;9.65;;;;;;;18.78;79.53;97079.85;1702293;83;25769;-76
2022/08/13 10:26:48;;;;;;;16.25;10.13;;;;;;;18.82;79.53;97083.15;1702378;83;25724;-76
2022/08/13 10:29:15;;;;;;;12.75;10.32;;;;;;;18.85;79.46;97085.31;1702151;84;26436;-76
2022/08/13 10:31:41;;;;;;;11.00;9.40;;;;;;;18.85;79.45;97077.11;1699325;84;25773;-76
2022/08/13 10:34:08;;;;;;;11.63;9.73;;;;;;;18.86;79.50;97076.02;1699344;84;27406;-77
2022/08/13 10:36:37;;;;;;;13.45;10.53;;;;;;;18.88;79.55;97073.84;1699337;84;25688;-76
2022/08/13 10:39:05;;;;;;;12.07;10.08;;;;;;;18.89;79.60;97074.12;1699351;84;25737;-76
2022/08/13 10:41:32;;;;;;;10.78;9.25;;;;;;;18.92;79.64;97070.84;1699251;84;25808;-76
2022/08/13 10:43:59;;;;;;;13.50;10.05;;;;;;;18.94;79.72;97072.77;1699289;84;25818;-76
2022/08/13 10:46:31;;;;;;;14.83;10.65;;;;;;;18.95;79.80;97074.41;1699250;84;27444;-76
2022/08/13 10:48:58;;;;;;;15.58;11.53;;;;;;;18.96;79.79;97070.55;1699131;84;25747;-77
2022/08/13 10:51:29;;;;;;;11.68;10.40;;;;;;;18.99;79.85;97067.28;1699135;84;25732;-76
2022/08/13 10:53:58;;;;;;;12.00;9.93;;;;;;;19.06;79.78;97065.66;1699244;84;26496;-76
2022/08/13 10:56:28;;;;;;;13.15;10.10;;;;;;;19.10;79.63;97059.07;1698971;84;25438;-76
2022/08/13 10:58:59;;;;;;;13.25;9.45;;;;;;;19.18;79.80;97050.34;1699307;84;27385;-76
2022/08/13 11:01:28;;;;;;;14.18;12.18;;;;;;;19.20;79.86;97047.57;1699079;84;25797;-76
2022/08/13 11:03:58;;;;;;;12.13;10.13;;;;;;;19.25;79.96;97047.58;1699167;84;25768;-75
2022/08/13 11:06:28;;;;;;;12.13;10.43;;;;;;;19.33;79.94;97043.45;1730905;82;26430;-75
2022/08/13 11:08:59;;;;;;;13.32;11.20;;;;;;;19.39;79.87;97043.73;1731423;82;25762;-75
2022/08/13 11:11:27;;;;;;;12.30;11.00;;;;;;;19.43;79.71;97044.83;1731647;82;27500;-75
2022/08/13 11:13:53;;;;;;;14.25;11.30;;;;;;;19.46;79.66;97041.52;1731337;82;26053;-75
2022/08/13 11:19:00;;;;;;;11.80;10.40;;;;;;;19.51;79.66;97041.55;1744414;82;26632;-75
2022/08/13 11:21:27;;;;;;;12.68;11.35;;;;;;;19.52;79.58;97033.62;1752716;81;25777;-74
2022/08/13 11:23:54;;;;;;;13.32;11.25;;;;;;;19.53;79.56;97039.36;1752768;81;27332;-75
2022/08/13 11:26:21;;;;;;;15.23;11.60;;;;;;;19.51;79.58;97036.08;1752797;81;25885;-75
2022/08/13 11:28:48;;;;;;;15.90;12.50;;;;;;;19.52;79.63;97045.11;1752800;81;26770;-75
2022/08/13 11:31:14;;;;;;;16.52;13.72;;;;;;;19.53;79.76;97035.26;1754896;81;26365;-76
2022/08/13 11:33:41;;;;;;;15.65;13.75;;;;;;;19.55;79.71;97037.17;1755278;81;25847;-76
2022/08/13 11:36:09;;;;;;;15.88;13.88;;;;;;;19.52;79.60;97039.09;1755503;81;27503;-75
2022/08/13 11:38:35;;;;;;;17.70;14.78;;;;;;;19.53;79.60;97043.47;1755593;81;25760;-75
2022/08/13 11:41:02;;;;;;;16.50;14.28;;;;;;;19.56;79.46;97040.16;1755750;81;25678;-75
2022/08/13 11:43:32;;;;;;;15.72;14.03;;;;;;;19.59;79.46;97043.72;1755511;81;26360;-75
2022/08/13 11:45:58;;;;;;;16.60;13.48;;;;;;;19.62;79.44;97036.33;1755559;81;25705;-75
2022/08/13 11:48:25;;;;;;;16.95;15.13;;;;;;;19.67;79.39;97043.17;1755409;81;28157;-76
2022/08/13 11:50:54;;;;;;;17.75;15.08;;;;;;;19.66;79.41;97047.00;1755585;81;26267;-74
2022/08/13 11:53:20;;;;;;;17.27;15.05;;;;;;;19.66;79.34;97042.89;1755849;81;26424;-76